sensor_id;sensor_type;location;lat;lon;timestamp;temperature;humidity
9107;DHT22;4589;48.690;8.952;2023-05-10T00:09:58;12.30;99.90
9107;DHT22;4589;48.690;8.952;2023-05-10T00:12:23;12.30;99.90
9107;DHT22;4589;48.690;8.952;2023-05-10T00:14:49;12.30;99.90
9107;DHT22;4589;48.690;8.952;2023-05-10T00:17:15;12.30;99.90
9107;DHT22;4589;48.690;8.952;2023-05-10T00:19:40;12.30;99.90
9107;DHT22;4589;48.690;8.952;2023-05-10T00:26:58;12.00;99.90
9107;DHT22;4589;48.690;8.952;2023-05-10T00:29:23;12.00;99.90
9107;DHT22;4589;48.690;8.952;2023-05-10T00:39:07;11.90;99.90
9107;DHT22;4589;48.690;8.952;2023-05-10T00:41:33;11.90;99.90
9107;DHT22;4589;48.690;8.952;2023-05-10T00:43:59;11.80;99.90
9107;DHT22;4589;48.690;8.952;2023-05-10T00:48:51;11.70;99.90
9107;DHT22;4589;48.690;8.952;2023-05-10T00:51:17;11.70;99.90
9107;DHT22;4589;48.690;8.952;2023-05-10T00:53:44;11.70;99.90
9107;DHT22;4589;48.690;8.952;2023-05-10T00:58:37;11.60;99.90
9107;DHT22;4589;48.690;8.952;2023-05-10T01:01:04;11.60;99.90
9107;DHT22;4589;48.690;8.952;2023-05-10T01:03:30;11.70;99.90
9107;DHT22;4589;48.690;8.952;2023-05-10T01:10:48;11.60;99.90
9107;DHT22;4589;48.690;8.952;2023-05-10T01:13:26;11.60;99.90
9107;DHT22;4589;48.690;8.952;2023-05-10T01:15:54;11.70;99.90
9107;DHT22;4589;48.690;8.952;2023-05-10T01:18:20;11.60;99.90
9107;DHT22;4589;48.690;8.952;2023-05-10T01:20:50;11.60;99.90
9107;DHT22;4589;48.690;8.952;2023-05-10T01:23:36;11.60;99.90
9107;DHT22;4589;48.690;8.952;2023-05-10T01:29:04;11.50;99.90
9107;DHT22;4589;48.690;8.952;2023-05-10T01:34:38;11.50;99.90
9107;DHT22;4589;48.690;8.952;2023-05-10T01:39:47;11.40;99.90
9107;DHT22;4589;48.690;8.952;2023-05-10T01:42:19;11.40;99.90
9107;DHT22;4589;48.690;8.952;2023-05-10T01:44:53;11.40;99.90
9107;DHT22;4589;48.690;8.952;2023-05-10T01:47:37;11.40;99.90
9107;DHT22;4589;48.690;8.952;2023-05-10T01:50:09;11.40;99.90
9107;DHT22;4589;48.690;8.952;2023-05-10T01:52:47;11.40;99.90
9107;DHT22;4589;48.690;8.952;2023-05-10T01:55:15;11.40;99.90
9107;DHT22;4589;48.690;8.952;2023-05-10T01:57:44;11.40;99.90
9107;DHT22;4589;48.690;8.952;2023-05-10T02:00:11;11.30;99.90
9107;DHT22;4589;48.690;8.952;2023-05-10T02:02:39;11.30;99.90
9107;DHT22;4589;48.690;8.952;2023-05-10T02:05:07;11.30;99.90
9107;DHT22;4589;48.690;8.952;2023-05-10T02:07:35;15.00;99.90
9107;DHT22;4589;48.690;8.952;2023-05-10T02:10:06;11.30;99.90
9107;DHT22;4589;48.690;8.952;2023-05-10T02:12:35;11.30;99.90
9107;DHT22;4589;48.690;8.952;2023-05-10T02:15:03;11.30;99.90
9107;DHT22;4589;48.690;8.952;2023-05-10T02:17:32;11.20;99.90
9107;DHT22;4589;48.690;8.952;2023-05-10T02:19:58;11.20;99.90
9107;DHT22;4589;48.690;8.952;2023-05-10T02:22:26;11.20;99.90
9107;DHT22;4589;48.690;8.952;2023-05-10T02:24:54;11.20;99.90
9107;DHT22;4589;48.690;8.952;2023-05-10T02:27:20;11.10;99.90
9107;DHT22;4589;48.690;8.952;2023-05-10T02:29:49;11.00;99.90
9107;DHT22;4589;48.690;8.952;2023-05-10T02:32:16;10.90;99.90
9107;DHT22;4589;48.690;8.952;2023-05-10T02:34:43;11.00;99.90
9107;DHT22;4589;48.690;8.952;2023-05-10T02:37:12;11.00;99.90
9107;DHT22;4589;48.690;8.952;2023-05-10T02:39:39;10.90;99.90
9107;DHT22;4589;48.690;8.952;2023-05-10T02:42:11;10.90;99.90
9107;DHT22;4589;48.690;8.952;2023-05-10T02:44:41;10.90;99.90
9107;DHT22;4589;48.690;8.952;2023-05-10T02:47:07;10.90;99.90
9107;DHT22;4589;48.690;8.952;2023-05-10T02:49:33;10.90;99.90
9107;DHT22;4589;48.690;8.952;2023-05-10T02:52:01;10.90;99.90
9107;DHT22;4589;48.690;8.952;2023-05-10T02:54:33;10.90;99.90
9107;DHT22;4589;48.690;8.952;2023-05-10T02:57:03;10.90;99.90
9107;DHT22;4589;48.690;8.952;2023-05-10T03:01:56;10.90;99.90
9107;DHT22;4589;48.690;8.952;2023-05-10T03:04:21;10.90;99.90
9107;DHT22;4589;48.690;8.952;2023-05-10T03:06:47;10.90;99.90
9107;DHT22;4589;48.690;8.952;2023-05-10T03:09:13;10.90;99.90
9107;DHT22;4589;48.690;8.952;2023-05-10T03:19:54;11.00;99.90
9107;DHT22;4589;48.690;8.952;2023-05-10T03:22:46;11.00;99.90
9107;DHT22;4589;48.690;8.952;2023-05-10T03:25:15;10.90;99.90
9107;DHT22;4589;48.690;8.952;2023-05-10T03:27:43;10.90;99.90
9107;DHT22;4589;48.690;8.952;2023-05-10T03:30:11;11.00;99.90
9107;DHT22;4589;48.690;8.952;2023-05-10T03:32:37;11.00;99.90
9107;DHT22;4589;48.690;8.952;2023-05-10T03:35:08;11.00;99.90
9107;DHT22;4589;48.690;8.952;2023-05-10T03:37:34;11.00;99.90
9107;DHT22;4589;48.690;8.952;2023-05-10T03:40:00;11.10;99.90
9107;DHT22;4589;48.690;8.952;2023-05-10T03:44:51;11.10;99.90
9107;DHT22;4589;48.690;8.952;2023-05-10T03:49:43;11.10;99.90
9107;DHT22;4589;48.690;8.952;2023-05-10T03:52:08;11.00;99.90
9107;DHT22;4589;48.690;8.952;2023-05-10T03:54:34;11.00;99.90
9107;DHT22;4589;48.690;8.952;2023-05-10T04:01:52;11.00;99.90
9107;DHT22;4589;48.690;8.952;2023-05-10T04:06:46;10.90;99.90
9107;DHT22;4589;48.690;8.952;2023-05-10T04:09:11;10.90;99.90
9107;DHT22;4589;48.690;8.952;2023-05-10T04:11:37;10.90;99.90
9107;DHT22;4589;48.690;8.952;2023-05-10T04:16:29;11.00;99.90
9107;DHT22;4589;48.690;8.952;2023-05-10T04:23:46;11.00;99.90
9107;DHT22;4589;48.690;8.952;2023-05-10T04:26:12;11.00;99.90
9107;DHT22;4589;48.690;8.952;2023-05-10T04:28:38;11.00;99.90
9107;DHT22;4589;48.690;8.952;2023-05-10T04:31:05;10.90;99.90
9107;DHT22;4589;48.690;8.952;2023-05-10T04:40:50;11.00;99.90
9107;DHT22;4589;48.690;8.952;2023-05-10T04:43:15;11.00;99.90
9107;DHT22;4589;48.690;8.952;2023-05-10T04:45:41;11.00;99.90
9107;DHT22;4589;48.690;8.952;2023-05-10T04:48:06;11.10;99.90
9107;DHT22;4589;48.690;8.952;2023-05-10T04:50:32;11.10;99.90
9107;DHT22;4589;48.690;8.952;2023-05-10T04:57:51;11.20;99.90
9107;DHT22;4589;48.690;8.952;2023-05-10T05:00:17;11.20;99.90
9107;DHT22;4589;48.690;8.952;2023-05-10T05:02:44;11.20;99.90
9107;DHT22;4589;48.690;8.952;2023-05-10T05:05:13;11.30;99.90
9107;DHT22;4589;48.690;8.952;2023-05-10T05:07:39;11.30;99.90
9107;DHT22;4589;48.690;8.952;2023-05-10T05:10:06;11.30;99.90
9107;DHT22;4589;48.690;8.952;2023-05-10T05:12:32;11.40;99.90
9107;DHT22;4589;48.690;8.952;2023-05-10T05:14:58;11.40;99.90
9107;DHT22;4589;48.690;8.952;2023-05-10T05:19:49;11.40;99.90
9107;DHT22;4589;48.690;8.952;2023-05-10T05:22:15;11.40;99.90
9107;DHT22;4589;48.690;8.952;2023-05-10T05:24:40;11.50;99.90
9107;DHT22;4589;48.690;8.952;2023-05-10T05:34:24;11.70;99.90
9107;DHT22;4589;48.690;8.952;2023-05-10T05:36:50;11.70;99.90
9107;DHT22;4589;48.690;8.952;2023-05-10T05:39:16;11.70;99.90
9107;DHT22;4589;48.690;8.952;2023-05-10T05:41:42;11.70;99.90
9107;DHT22;4589;48.690;8.952;2023-05-10T05:46:33;11.80;99.90
9107;DHT22;4589;48.690;8.952;2023-05-10T05:56:17;12.00;99.90
9107;DHT22;4589;48.690;8.952;2023-05-10T05:58:52;12.00;99.90
9107;DHT22;4589;48.690;8.952;2023-05-10T06:06:09;12.10;99.90
9107;DHT22;4589;48.690;8.952;2023-05-10T06:08:35;12.20;99.90
9107;DHT22;4589;48.690;8.952;2023-05-10T06:11:01;12.20;99.90
9107;DHT22;4589;48.690;8.952;2023-05-10T06:15:58;12.20;99.90
9107;DHT22;4589;48.690;8.952;2023-05-10T06:18:23;12.30;99.90
9107;DHT22;4589;48.690;8.952;2023-05-10T06:20:50;12.40;99.90
9107;DHT22;4589;48.690;8.952;2023-05-10T06:23:15;12.50;99.90
9107;DHT22;4589;48.690;8.952;2023-05-10T06:32:59;12.70;99.90
9107;DHT22;4589;48.690;8.952;2023-05-10T06:35:24;12.70;99.90
9107;DHT22;4589;48.690;8.952;2023-05-10T06:37:50;12.90;99.90
9107;DHT22;4589;48.690;8.952;2023-05-10T06:40:17;12.90;99.90
9107;DHT22;4589;48.690;8.952;2023-05-10T06:42:42;13.00;99.90
9107;DHT22;4589;48.690;8.952;2023-05-10T06:45:10;12.90;99.90
9107;DHT22;4589;48.690;8.952;2023-05-10T06:50:02;13.00;99.90
9107;DHT22;4589;48.690;8.952;2023-05-10T06:54:53;13.20;99.90
9107;DHT22;4589;48.690;8.952;2023-05-10T06:57:19;13.40;99.90
9107;DHT22;4589;48.690;8.952;2023-05-10T07:07:02;13.60;99.90
9107;DHT22;4589;48.690;8.952;2023-05-10T07:09:28;13.70;99.90
9107;DHT22;4589;48.690;8.952;2023-05-10T07:11:53;13.60;99.90
9107;DHT22;4589;48.690;8.952;2023-05-10T07:16:45;13.80;99.90
9107;DHT22;4589;48.690;8.952;2023-05-10T07:19:10;13.80;99.90
9107;DHT22;4589;48.690;8.952;2023-05-10T07:21:36;13.90;99.90
9107;DHT22;4589;48.690;8.952;2023-05-10T07:24:02;13.90;99.90
9107;DHT22;4589;48.690;8.952;2023-05-10T07:26:28;14.00;99.90
9107;DHT22;4589;48.690;8.952;2023-05-10T07:58:07;14.50;99.90
9107;DHT22;4589;48.690;8.952;2023-05-10T08:00:32;14.60;99.90
9107;DHT22;4589;48.690;8.952;2023-05-10T08:02:58;14.80;99.90
9107;DHT22;4589;48.690;8.952;2023-05-10T08:07:49;15.10;99.90
9107;DHT22;4589;48.690;8.952;2023-05-10T08:15:08;15.50;99.90
9107;DHT22;4589;48.690;8.952;2023-05-10T08:22:26;15.40;99.90
9107;DHT22;4589;48.690;8.952;2023-05-10T08:24:51;15.40;99.90
9107;DHT22;4589;48.690;8.952;2023-05-10T08:27:17;15.60;99.90
9107;DHT22;4589;48.690;8.952;2023-05-10T08:37:01;16.00;99.90
9107;DHT22;4589;48.690;8.952;2023-05-10T08:39:27;16.00;99.90
9107;DHT22;4589;48.690;8.952;2023-05-10T08:41:54;16.00;99.90
9107;DHT22;4589;48.690;8.952;2023-05-10T08:44:24;15.80;99.90
9107;DHT22;4589;48.690;8.952;2023-05-10T08:46:53;15.80;99.90
9107;DHT22;4589;48.690;8.952;2023-05-10T08:49:20;16.00;99.90
9107;DHT22;4589;48.690;8.952;2023-05-10T08:51:50;16.10;99.90
9107;DHT22;4589;48.690;8.952;2023-05-10T08:54:17;16.40;99.90
9107;DHT22;4589;48.690;8.952;2023-05-10T08:59:09;16.50;99.90
9107;DHT22;4589;48.690;8.952;2023-05-10T09:01:36;16.90;99.90
9107;DHT22;4589;48.690;8.952;2023-05-10T09:04:02;17.00;99.90
9107;DHT22;4589;48.690;8.952;2023-05-10T09:06:29;17.20;99.90
9107;DHT22;4589;48.690;8.952;2023-05-10T09:08:55;17.30;99.90
9107;DHT22;4589;48.690;8.952;2023-05-10T09:11:21;17.30;99.90
9107;DHT22;4589;48.690;8.952;2023-05-10T09:13:48;17.20;99.90
9107;DHT22;4589;48.690;8.952;2023-05-10T09:23:33;17.70;99.90
9107;DHT22;4589;48.690;8.952;2023-05-10T09:26:05;17.70;99.90
9107;DHT22;4589;48.690;8.952;2023-05-10T09:28:35;18.00;99.90
9107;DHT22;4589;48.690;8.952;2023-05-10T09:31:15;17.60;99.90
9107;DHT22;4589;48.690;8.952;2023-05-10T09:33:46;17.50;99.90
9107;DHT22;4589;48.690;8.952;2023-05-10T09:36:13;17.60;99.90
9107;DHT22;4589;48.690;8.952;2023-05-10T09:38:49;17.80;99.90
9107;DHT22;4589;48.690;8.952;2023-05-10T09:41:17;17.90;99.90
9107;DHT22;4589;48.690;8.952;2023-05-10T09:43:43;18.10;99.90
9107;DHT22;4589;48.690;8.952;2023-05-10T09:46:09;18.30;99.90
9107;DHT22;4589;48.690;8.952;2023-05-10T09:48:45;18.50;99.90
9107;DHT22;4589;48.690;8.952;2023-05-10T09:51:18;18.50;99.90
9107;DHT22;4589;48.690;8.952;2023-05-10T09:53:44;18.40;99.90
9107;DHT22;4589;48.690;8.952;2023-05-10T09:56:09;18.10;99.90
9107;DHT22;4589;48.690;8.952;2023-05-10T09:58:36;18.40;99.90
9107;DHT22;4589;48.690;8.952;2023-05-10T10:01:03;18.60;99.90
9107;DHT22;4589;48.690;8.952;2023-05-10T10:03:30;18.70;99.90
9107;DHT22;4589;48.690;8.952;2023-05-10T10:08:22;18.50;99.90
9107;DHT22;4589;48.690;8.952;2023-05-10T10:10:47;18.80;99.90
9107;DHT22;4589;48.690;8.952;2023-05-10T10:13:14;19.10;99.90
9107;DHT22;4589;48.690;8.952;2023-05-10T10:15:40;19.10;99.90
9107;DHT22;4589;48.690;8.952;2023-05-10T10:18:07;19.40;99.90
9107;DHT22;4589;48.690;8.952;2023-05-10T10:20:37;19.60;99.90
9107;DHT22;4589;48.690;8.952;2023-05-10T10:23:02;20.30;99.90
9107;DHT22;4589;48.690;8.952;2023-05-10T10:25:28;21.00;99.90
9107;DHT22;4589;48.690;8.952;2023-05-10T10:30:43;21.80;99.90
9107;DHT22;4589;48.690;8.952;2023-05-10T10:33:24;21.40;99.90
9107;DHT22;4589;48.690;8.952;2023-05-10T10:35:54;20.40;99.90
9107;DHT22;4589;48.690;8.952;2023-05-10T10:38:21;19.40;99.90
9107;DHT22;4589;48.690;8.952;2023-05-10T10:43:28;17.70;99.90
9107;DHT22;4589;48.690;8.952;2023-05-10T10:48:35;16.90;99.90
9107;DHT22;4589;48.690;8.952;2023-05-10T10:51:01;16.70;99.90
9107;DHT22;4589;48.690;8.952;2023-05-10T10:56:14;15.80;99.90
9107;DHT22;4589;48.690;8.952;2023-05-10T10:58:41;15.70;99.90
9107;DHT22;4589;48.690;8.952;2023-05-10T11:01:17;15.60;99.90
9107;DHT22;4589;48.690;8.952;2023-05-10T11:06:33;15.40;99.90
9107;DHT22;4589;48.690;8.952;2023-05-10T11:09:08;15.50;99.90
9107;DHT22;4589;48.690;8.952;2023-05-10T11:11:50;15.40;99.90
9107;DHT22;4589;48.690;8.952;2023-05-10T11:14:20;15.30;99.90
9107;DHT22;4589;48.690;8.952;2023-05-10T11:19:16;15.10;99.90
9107;DHT22;4589;48.690;8.952;2023-05-10T11:22:12;15.10;99.90
9107;DHT22;4589;48.690;8.952;2023-05-10T11:24:56;15.10;99.90
9107;DHT22;4589;48.690;8.952;2023-05-10T11:27:22;15.30;99.90
9107;DHT22;4589;48.690;8.952;2023-05-10T11:29:51;15.50;99.90
9107;DHT22;4589;48.690;8.952;2023-05-10T11:32:17;15.80;99.90
9107;DHT22;4589;48.690;8.952;2023-05-10T11:34:47;16.10;99.90
9107;DHT22;4589;48.690;8.952;2023-05-10T11:37:13;16.40;99.90
9107;DHT22;4589;48.690;8.952;2023-05-10T11:39:39;16.80;99.90
9107;DHT22;4589;48.690;8.952;2023-05-10T11:42:12;17.20;99.90
9107;DHT22;4589;48.690;8.952;2023-05-10T11:44:37;17.30;99.90
9107;DHT22;4589;48.690;8.952;2023-05-10T11:47:03;17.50;99.90
9107;DHT22;4589;48.690;8.952;2023-05-10T11:49:29;17.20;99.90
9107;DHT22;4589;48.690;8.952;2023-05-10T11:52:06;17.50;99.90
9107;DHT22;4589;48.690;8.952;2023-05-10T11:54:31;17.80;99.90
9107;DHT22;4589;48.690;8.952;2023-05-10T11:57:00;18.10;99.90
9107;DHT22;4589;48.690;8.952;2023-05-10T12:01:51;18.90;99.90
9107;DHT22;4589;48.690;8.952;2023-05-10T12:04:17;19.00;99.90
9107;DHT22;4589;48.690;8.952;2023-05-10T12:06:43;18.80;99.90
9107;DHT22;4589;48.690;8.952;2023-05-10T12:11:39;18.40;99.90
9107;DHT22;4589;48.690;8.952;2023-05-10T12:14:06;18.20;99.90
9107;DHT22;4589;48.690;8.952;2023-05-10T12:18:59;17.40;99.90
9107;DHT22;4589;48.690;8.952;2023-05-10T12:21:26;17.10;99.90
9107;DHT22;4589;48.690;8.952;2023-05-10T12:23:54;17.00;99.90
9107;DHT22;4589;48.690;8.952;2023-05-10T12:26:24;16.90;99.90
9107;DHT22;4589;48.690;8.952;2023-05-10T12:28:52;16.80;99.90
9107;DHT22;4589;48.690;8.952;2023-05-10T12:33:45;16.30;99.90
9107;DHT22;4589;48.690;8.952;2023-05-10T12:36:13;16.30;99.90
9107;DHT22;4589;48.690;8.952;2023-05-10T12:38:43;16.40;99.90
9107;DHT22;4589;48.690;8.952;2023-05-10T12:41:11;16.40;99.90
9107;DHT22;4589;48.690;8.952;2023-05-10T12:43:37;16.60;99.90
9107;DHT22;4589;48.690;8.952;2023-05-10T12:46:11;16.70;99.90
9107;DHT22;4589;48.690;8.952;2023-05-10T12:48:38;16.70;99.90
9107;DHT22;4589;48.690;8.952;2023-05-10T12:51:04;16.60;99.90
9107;DHT22;4589;48.690;8.952;2023-05-10T13:03:16;17.10;99.90
9107;DHT22;4589;48.690;8.952;2023-05-10T13:05:42;17.40;99.90
9107;DHT22;4589;48.690;8.952;2023-05-10T13:15:26;17.30;99.90
9107;DHT22;4589;48.690;8.952;2023-05-10T13:17:52;17.20;99.90
9107;DHT22;4589;48.690;8.952;2023-05-10T13:30:03;17.30;99.90
9107;DHT22;4589;48.690;8.952;2023-05-10T13:32:29;17.60;99.90
9107;DHT22;4589;48.690;8.952;2023-05-10T13:34:55;17.70;99.90
9107;DHT22;4589;48.690;8.952;2023-05-10T13:39:47;18.00;99.90
9107;DHT22;4589;48.690;8.952;2023-05-10T13:42:13;18.10;99.90
9107;DHT22;4589;48.690;8.952;2023-05-10T13:44:38;18.20;99.90
9107;DHT22;4589;48.690;8.952;2023-05-10T13:47:04;18.00;99.90
9107;DHT22;4589;48.690;8.952;2023-05-10T13:49:30;17.90;99.90
9107;DHT22;4589;48.690;8.952;2023-05-10T13:59:14;17.60;99.90
9107;DHT22;4589;48.690;8.952;2023-05-10T14:01:43;17.70;99.90
9107;DHT22;4589;48.690;8.952;2023-05-10T14:04:09;17.70;99.90
9107;DHT22;4589;48.690;8.952;2023-05-10T14:06:38;17.50;99.90
9107;DHT22;4589;48.690;8.952;2023-05-10T14:09:04;17.60;99.90
9107;DHT22;4589;48.690;8.952;2023-05-10T14:11:29;17.60;99.90
9107;DHT22;4589;48.690;8.952;2023-05-10T14:13:55;17.60;99.90
9107;DHT22;4589;48.690;8.952;2023-05-10T14:30:58;17.70;99.90
9107;DHT22;4589;48.690;8.952;2023-05-10T14:35:50;17.60;99.90
9107;DHT22;4589;48.690;8.952;2023-05-10T14:50:30;17.40;99.90
9107;DHT22;4589;48.690;8.952;2023-05-10T14:52:55;17.40;99.90
9107;DHT22;4589;48.690;8.952;2023-05-10T14:55:21;17.30;99.90
9107;DHT22;4589;48.690;8.952;2023-05-10T15:00:15;17.70;99.90
9107;DHT22;4589;48.690;8.952;2023-05-10T15:02:41;17.80;99.90
9107;DHT22;4589;48.690;8.952;2023-05-10T15:05:07;17.90;99.90
9107;DHT22;4589;48.690;8.952;2023-05-10T15:07:32;17.80;99.90
9107;DHT22;4589;48.690;8.952;2023-05-10T15:09:58;17.90;99.90
9107;DHT22;4589;48.690;8.952;2023-05-10T15:31:52;17.30;99.90
9107;DHT22;4589;48.690;8.952;2023-05-10T15:34:18;17.40;99.90
9107;DHT22;4589;48.690;8.952;2023-05-10T15:39:10;17.70;99.90
9107;DHT22;4589;48.690;8.952;2023-05-10T15:41:36;17.60;99.90
9107;DHT22;4589;48.690;8.952;2023-05-10T15:44:02;17.50;99.90
9107;DHT22;4589;48.690;8.952;2023-05-10T15:46:28;17.30;99.90
9107;DHT22;4589;48.690;8.952;2023-05-10T15:48:54;17.30;99.90
9107;DHT22;4589;48.690;8.952;2023-05-10T15:51:20;17.30;99.90
9107;DHT22;4589;48.690;8.952;2023-05-10T15:53:46;17.20;99.90
9107;DHT22;4589;48.690;8.952;2023-05-10T15:58:38;17.20;99.90
9107;DHT22;4589;48.690;8.952;2023-05-10T16:01:04;17.00;99.90
9107;DHT22;4589;48.690;8.952;2023-05-10T16:03:33;17.10;99.90
9107;DHT22;4589;48.690;8.952;2023-05-10T16:05:59;17.10;99.90
9107;DHT22;4589;48.690;8.952;2023-05-10T16:08:25;17.20;99.90
9107;DHT22;4589;48.690;8.952;2023-05-10T16:13:17;17.10;99.90
9107;DHT22;4589;48.690;8.952;2023-05-10T16:15:43;17.30;99.90
9107;DHT22;4589;48.690;8.952;2023-05-10T16:18:08;16.80;99.90
9107;DHT22;4589;48.690;8.952;2023-05-10T16:20:35;16.70;99.90
9107;DHT22;4589;48.690;8.952;2023-05-10T16:23:03;16.50;99.90
9107;DHT22;4589;48.690;8.952;2023-05-10T16:25:29;16.40;99.90
9107;DHT22;4589;48.690;8.952;2023-05-10T16:27:56;16.10;99.90
9107;DHT22;4589;48.690;8.952;2023-05-10T16:30:21;15.90;99.90
9107;DHT22;4589;48.690;8.952;2023-05-10T16:32:49;15.80;99.90
9107;DHT22;4589;48.690;8.952;2023-05-10T16:35:15;15.60;99.90
9107;DHT22;4589;48.690;8.952;2023-05-10T16:37:40;15.40;99.90
9107;DHT22;4589;48.690;8.952;2023-05-10T16:40:07;15.20;99.90
9107;DHT22;4589;48.690;8.952;2023-05-10T16:42:32;15.10;99.90
9107;DHT22;4589;48.690;8.952;2023-05-10T16:47:32;14.70;99.90
9107;DHT22;4589;48.690;8.952;2023-05-10T16:49:57;14.40;99.90
9107;DHT22;4589;48.690;8.952;2023-05-10T16:52:23;14.40;99.90
9107;DHT22;4589;48.690;8.952;2023-05-10T16:54:49;14.30;99.90
9107;DHT22;4589;48.690;8.952;2023-05-10T16:59:40;14.20;99.90
9107;DHT22;4589;48.690;8.952;2023-05-10T17:02:06;14.10;99.90
9107;DHT22;4589;48.690;8.952;2023-05-10T17:04:31;14.20;99.90
9107;DHT22;4589;48.690;8.952;2023-05-10T17:11:49;13.60;99.90
9107;DHT22;4589;48.690;8.952;2023-05-10T17:14:14;13.60;99.90
9107;DHT22;4589;48.690;8.952;2023-05-10T17:16:40;13.70;99.90
9107;DHT22;4589;48.690;8.952;2023-05-10T17:19:07;13.70;99.90
9107;DHT22;4589;48.690;8.952;2023-05-10T17:23:59;13.70;99.90
9107;DHT22;4589;48.690;8.952;2023-05-10T17:26:24;13.60;99.90
9107;DHT22;4589;48.690;8.952;2023-05-10T17:28:52;13.60;99.90
9107;DHT22;4589;48.690;8.952;2023-05-10T17:41:02;13.40;99.90
9107;DHT22;4589;48.690;8.952;2023-05-10T17:43:28;13.30;99.90
9107;DHT22;4589;48.690;8.952;2023-05-10T17:45:53;13.20;99.90
9107;DHT22;4589;48.690;8.952;2023-05-10T17:50:45;13.10;99.90
9107;DHT22;4589;48.690;8.952;2023-05-10T17:53:11;13.10;99.90
9107;DHT22;4589;48.690;8.952;2023-05-10T17:55:39;13.10;99.90
9107;DHT22;4589;48.690;8.952;2023-05-10T17:58:05;13.10;99.90
9107;DHT22;4589;48.690;8.952;2023-05-10T18:00:30;13.00;99.90
9107;DHT22;4589;48.690;8.952;2023-05-10T18:02:56;12.90;99.90
9107;DHT22;4589;48.690;8.952;2023-05-10T18:15:06;12.60;99.90
9107;DHT22;4589;48.690;8.952;2023-05-10T18:17:32;12.60;99.90
9107;DHT22;4589;48.690;8.952;2023-05-10T18:24:51;12.40;99.90
9107;DHT22;4589;48.690;8.952;2023-05-10T18:39:35;12.30;99.90
9107;DHT22;4589;48.690;8.952;2023-05-10T18:42:02;12.30;99.90
9107;DHT22;4589;48.690;8.952;2023-05-10T18:49:21;12.20;99.90
9107;DHT22;4589;48.690;8.952;2023-05-10T18:54:13;12.20;99.90
9107;DHT22;4589;48.690;8.952;2023-05-10T18:59:09;12.10;99.90
9107;DHT22;4589;48.690;8.952;2023-05-10T19:06:27;11.90;99.90
9107;DHT22;4589;48.690;8.952;2023-05-10T19:08:52;11.90;99.90
9107;DHT22;4589;48.690;8.952;2023-05-10T19:11:18;11.90;99.90
9107;DHT22;4589;48.690;8.952;2023-05-10T19:13:44;11.90;99.90
9107;DHT22;4589;48.690;8.952;2023-05-10T19:16:16;11.80;99.90
9107;DHT22;4589;48.690;8.952;2023-05-10T19:18:42;11.90;99.90
9107;DHT22;4589;48.690;8.952;2023-05-10T19:21:08;11.80;99.90
9107;DHT22;4589;48.690;8.952;2023-05-10T19:23:38;11.80;99.90
9107;DHT22;4589;48.690;8.952;2023-05-10T19:35:49;11.70;99.90
9107;DHT22;4589;48.690;8.952;2023-05-10T19:38:18;11.70;99.90
9107;DHT22;4589;48.690;8.952;2023-05-10T19:40:44;11.70;99.90
9107;DHT22;4589;48.690;8.952;2023-05-10T19:43:09;11.70;99.90
9107;DHT22;4589;48.690;8.952;2023-05-10T19:48:01;11.60;99.90
9107;DHT22;4589;48.690;8.952;2023-05-10T19:50:27;11.60;99.90
9107;DHT22;4589;48.690;8.952;2023-05-10T19:52:52;11.60;99.90
9107;DHT22;4589;48.690;8.952;2023-05-10T19:55:29;11.60;99.90
9107;DHT22;4589;48.690;8.952;2023-05-10T19:57:55;11.60;99.90
9107;DHT22;4589;48.690;8.952;2023-05-10T20:02:47;11.50;99.90
9107;DHT22;4589;48.690;8.952;2023-05-10T20:05:13;11.50;99.90
9107;DHT22;4589;48.690;8.952;2023-05-10T20:22:14;11.50;99.90
9107;DHT22;4589;48.690;8.952;2023-05-10T20:24:40;11.40;99.90
9107;DHT22;4589;48.690;8.952;2023-05-10T20:27:05;11.30;99.90
9107;DHT22;4589;48.690;8.952;2023-05-10T20:29:31;11.30;99.90
9107;DHT22;4589;48.690;8.952;2023-05-10T20:31:57;11.20;99.90
9107;DHT22;4589;48.690;8.952;2023-05-10T20:34:23;11.20;99.90
9107;DHT22;4589;48.690;8.952;2023-05-10T20:36:48;11.20;99.90
9107;DHT22;4589;48.690;8.952;2023-05-10T20:56:17;11.00;99.90
9107;DHT22;4589;48.690;8.952;2023-05-10T20:58:43;11.00;99.90
9107;DHT22;4589;48.690;8.952;2023-05-10T21:06:01;11.00;99.90
9107;DHT22;4589;48.690;8.952;2023-05-10T21:08:26;10.90;99.90
9107;DHT22;4589;48.690;8.952;2023-05-10T21:10:53;10.90;99.90
9107;DHT22;4589;48.690;8.952;2023-05-10T21:15:44;10.80;99.90
9107;DHT22;4589;48.690;8.952;2023-05-10T21:27:54;10.70;99.90
9107;DHT22;4589;48.690;8.952;2023-05-10T21:35:11;10.60;99.90
9107;DHT22;4589;48.690;8.952;2023-05-10T21:42:29;10.40;99.90
9107;DHT22;4589;48.690;8.952;2023-05-10T21:44:55;10.40;99.90
9107;DHT22;4589;48.690;8.952;2023-05-10T21:47:20;10.40;99.90
9107;DHT22;4589;48.690;8.952;2023-05-10T21:49:46;10.30;99.90
9107;DHT22;4589;48.690;8.952;2023-05-10T21:52:12;10.20;99.90
9107;DHT22;4589;48.690;8.952;2023-05-10T22:06:47;9.90;99.90
9107;DHT22;4589;48.690;8.952;2023-05-10T22:14:05;9.80;99.90
9107;DHT22;4589;48.690;8.952;2023-05-10T22:16:31;9.80;99.90
9107;DHT22;4589;48.690;8.952;2023-05-10T22:21:22;9.80;99.90
9107;DHT22;4589;48.690;8.952;2023-05-10T22:23:48;9.80;99.90
9107;DHT22;4589;48.690;8.952;2023-05-10T22:31:09;9.80;99.90
9107;DHT22;4589;48.690;8.952;2023-05-10T22:36:04;9.90;99.90
9107;DHT22;4589;48.690;8.952;2023-05-10T22:38:30;9.90;99.90
9107;DHT22;4589;48.690;8.952;2023-05-10T22:48:14;9.80;99.90
9107;DHT22;4589;48.690;8.952;2023-05-10T22:50:40;9.90;99.90
9107;DHT22;4589;48.690;8.952;2023-05-10T22:53:05;9.90;99.90
9107;DHT22;4589;48.690;8.952;2023-05-10T22:55:31;9.80;99.90
9107;DHT22;4589;48.690;8.952;2023-05-10T23:00:23;9.80;99.90
9107;DHT22;4589;48.690;8.952;2023-05-10T23:02:49;9.80;99.90
9107;DHT22;4589;48.690;8.952;2023-05-10T23:05:15;9.90;99.90
9107;DHT22;4589;48.690;8.952;2023-05-10T23:17:25;9.80;99.90
9107;DHT22;4589;48.690;8.952;2023-05-10T23:22:17;9.80;99.90
9107;DHT22;4589;48.690;8.952;2023-05-10T23:24:42;9.80;99.90
9107;DHT22;4589;48.690;8.952;2023-05-10T23:29:34;9.70;99.90
9107;DHT22;4589;48.690;8.952;2023-05-10T23:31:59;9.70;99.90
9107;DHT22;4589;48.690;8.952;2023-05-10T23:36:51;9.70;99.90
9107;DHT22;4589;48.690;8.952;2023-05-10T23:49:01;9.80;99.90
9107;DHT22;4589;48.690;8.952;2023-05-10T23:51:26;9.80;99.90
9107;DHT22;4589;48.690;8.952;2023-05-10T23:56:18;9.80;99.90
